• Join FlightAware (Why Join?)
  • Login
  • US Flag GB Flag 
19:50 EDT


 

Airport Tracker/Info


-or-


 

Live Flight TrackerFlight Track Log ✈ OPT732 ✈ 13-May-2013 ✈ MBPV / PLS - KTEB

Flight Track Log - Related Links

Times and Time Zones

All times are in EDT time to prevent confusion due to time zone crossing. See the OPT732 flight status page for this flight to view local times or setup timezone preferences in your user account.

Time Position Orientation Groundspeed Altitude Reporting Facility
EDT Latitude Longitude Course Direction KTS MPH feet Rate Location/Type
12:47 21.7742 -72.1603 317° Northwest 490 564 2,300  Level Miami Center
12:48 21.7842 -72.0839 82° East 398 458 4,300 2,520 Climbing Miami Center
12:49 21.8572 -72.0814 North 250 288 7,400 3,000 Climbing Miami Center
12:50 22.3462 -72.7568 324° Northwest  Level FlightAware Approximate
12:50 21.9214 -72.1328 323° Northwest 197 227 10,300  Level Miami Center
12:51 22.4449 -72.8359 324° Northwest  Level FlightAware Approximate
12:51 21.9922 -72.1906 323° Northwest 252 290 11,800  Level Miami Center
12:52 22.5385 -72.9218 317° Northwest  Level FlightAware Approximate
12:52 22.0672 -72.2553 321° Northwest 306 352 13,700  Level Miami Center
12:53 22.1528 -72.3239 323° Northwest 336 387 15,500 1,800 Climbing Miami Center
12:54 22.2319 -72.3906 322° Northwest 350 403 17,300 1,680 Climbing Miami Center
12:55 22.3133 -72.4597 322° Northwest 361 415 18,900 1,440 Climbing Miami Center
12:56 22.3947 -72.5311 321° Northwest 366 421 20,200 1,500 Climbing Miami Center
12:57 22.4822 -72.6022 323° Northwest 376 433 22,000 1,680 Climbing Miami Center
12:58 22.5656 -72.6736 322° Northwest 382 440 23,600 1,500 Climbing Miami Center
12:59 22.6553 -72.7450 324° Northwest 382 440 25,000 1,500 Climbing Miami Center
13:00 22.7389 -72.8211 320° Northwest 388 447 26,700 1,620 Climbing Miami Center
13:01 22.8283 -72.8928 324° Northwest 388 447 28,300 1,500 Climbing Miami Center
13:02 22.9161 -72.9689 321° Northwest 393 452 29,700 1,440 Climbing Miami Center
13:03 23.0056 -73.0453 322° Northwest 403 464 31,200 1,500 Climbing Miami Center
13:04 23.0869 -73.1172 321° Northwest 403 464 32,700 1,320 Climbing Miami Center
13:05 23.1722 -73.1961 320° Northwest 411 473 33,900 1,200 Climbing Miami Center
13:06 23.2767 -73.2744 325° Northwest 425 489 35,200 1,500 Climbing Miami Center
13:07 23.3725 -73.3556 322° Northwest 430 495 37,000 1,620 Climbing Miami Center
13:08 23.4664 -73.4367 322° Northwest 430 495 38,500 1,500 Climbing Miami Center
13:09 23.5600 -73.5181 321° Northwest 425 489 40,000 1,500 Climbing Miami Center
13:10 23.6494 -73.5950 322° Northwest 425 489 41,500 1,260 Climbing Miami Center
13:11 23.7472 -73.6742 323° Northwest 425 489 42,600 600 Climbing Miami Center
13:12 23.8389 -73.7536 322° Northwest 425 489 42,800 240 Climbing Miami Center
13:13 23.9367 -73.8400 321° Northwest 437 503 43,100 240 Climbing Miami Center
13:14 24.0322 -73.9217 322° Northwest 437 503 43,300 180 Climbing Miami Center
13:15 24.1281 -74.0061 321° Northwest 437 503 43,500 180 Climbing Miami Center
13:16 24.2256 -74.0903 322° Northwest 442 509 43,700 240 Climbing Miami Center
13:17 24.3233 -74.1747 322° Northwest 442 509 44,000 240 Climbing Miami Center
13:18 24.4167 -74.2550 322° Northwest 442 509 44,200 180 Climbing Miami Center
13:19 24.5122 -74.3397 321° Northwest 436 502 44,400 240 Climbing Miami Center
13:20 24.6075 -74.4200 323° Northwest 436 502 44,700 240 Climbing Miami Center
13:21 24.7008 -74.5028 321° Northwest 431 496 44,900 120 Climbing Miami Center
13:22 24.7942 -74.5881 320° Northwest 431 496 45,000 60 Climbing Miami Center
13:23 24.8894 -74.6686 323° Northwest 431 496 45,100 120 Climbing Miami Center
13:24 24.9847 -74.7564 320° Northwest 436 502 45,300 180 Climbing Miami Center
13:25 25.0778 -74.8375 322° Northwest 429 494 45,500 180 Climbing Miami Center
13:26 25.1708 -74.9186 322° Northwest 429 494 45,700 180 Climbing Miami Center
13:27 25.2658 -75.0019 322° Northwest 429 494 45,900 180 Climbing Miami Center
13:28 25.3589 -75.0881 320° Northwest 429 494 46,100 180 Climbing Miami Center
13:29 25.4519 -75.1694 322° Northwest 429 494 46,300 180 Climbing Miami Center
13:30 25.5469 -75.2556 321° Northwest 429 494 46,500 120 Climbing Miami Center
13:31 25.6397 -75.3375 321° Northwest 429 494 46,600 120 Climbing Miami Center
13:32 25.7472 -75.4328 321° Northwest 429 494 46,800 180 Climbing Miami Center
13:33 25.8378 -75.5150 321° Northwest 425 489 47,000 60 Climbing Miami Center
13:34 25.9347 -75.6017 321° Northwest 432 497 47,000  Level Miami Center
13:35 26.0147 -75.6747 321° Northwest 427 491 47,000  Level Miami Center
13:36 26.1136 -75.7617 322° Northwest 433 498 47,000  Level Miami Center
13:37 26.2061 -75.8442 321° Northwest 433 498 47,000  Level Miami Center
13:38 26.3008 -75.9339 320° Northwest 433 498 47,000  Level Miami Center
13:39 26.3889 -76.0144 321° Northwest 427 491 47,000  Level Miami Center
13:40 26.4814 -76.0972 321° Northwest 421 484 47,000  Level Miami Center
13:41 26.5758 -76.1850 320° Northwest 428 493 47,000  Level Miami Center
13:42 26.6639 -76.2658 321° Northwest 428 493 47,000  Level Miami Center
13:43 26.7561 -76.3492 321° Northwest 423 487 47,000  Level Miami Center
13:44 26.8442 -76.4325 320° Northwest 423 487 47,000  Level Miami Center
13:45 26.9428 -76.5253 320° Northwest 439 505 47,000  Level Miami Center
13:46 27.0328 -76.6044 322° Northwest 438 504 47,000  Level Miami Center
13:47 27.1225 -76.6858 321° Northwest 427 491 47,000  Level Miami Center
13:48 27.2167 -76.7769 319° Northwest 427 491 47,000  Level Miami Center
13:49 27.3086 -76.8681 319° Northwest 435 501 47,000  Level Miami Center
13:50 27.3983 -76.9428 324° Northwest 428 493 47,000  Level Miami Center
13:51 27.5069 -77.0131 330° Northwest 428 493 47,000  Level Miami Center
13:52 27.6281 -77.0228 356° North 425 489 47,000  Level Miami Center
13:53 27.7514 -77.0392 353° North 432 497 47,000  Level Miami Center
13:54 27.8786 -77.0631 351° North 445 512 47,000  Level Miami Center
13:55 28.0019 -77.0750 355° North 445 512 47,000  Level Miami Center
13:56 28.1250 -77.0917 353° North 445 512 47,000  Level Miami Center
13:57 28.2481 -77.1083 353° North 445 512 47,000  Level Miami Center
13:58 28.3775 -77.1275 353° North 445 512 47,000  Level Miami Center
13:59 28.4964 -77.1419 354° North 434 499 47,000  Level Miami Center
14:00 28.6258 -77.1614 352° North 457 526 47,000  Level Miami Center
14:01 28.7511 -77.1781 353° North 457 526 47,000  Level Miami Center
14:02 28.8719 -77.1950 353° North 456 525 47,000  Level Miami Center
14:03 29.0078 -77.2144 353° North 451 519 47,000  Level Miami Center
14:04 29.1286 -77.2292 354° North 451 519 47,000  Level Miami Center
14:05 29.2642 -77.2511 352° North 461 531 47,000 -60 Level Miami Center
14:06 29.4061 -77.2706 353° North 466 536 46,900  Descending Miami Center
14:07 29.5250 -77.2853 354° North 470 541 47,000  Climbing Miami Center
14:08 29.6561 -77.3050 353° North 464 534 46,900  Descending Miami Center
14:09 29.7817 -77.3200 354° North 458 527 47,000  Climbing Jacksonville Center
14:10 29.9097 -77.3367 354° North 458 527 47,000  Level Jacksonville Center
14:11 30.0400 -77.3581 352° North 471 542 47,000 -60 Level Jacksonville Center
14:12 30.1842 -77.3642 358° North 465 535 46,900  Descending Jacksonville Center
14:13 30.3164 -77.3831 353° North 460 529 47,000  Climbing Jacksonville Center
14:14 30.4450 -77.4092 350° North 470 541 47,000 -60 Level Jacksonville Center
14:15 30.5772 -77.4258 354° North 470 541 46,900  Descending Jacksonville Center
14:16 30.7072 -77.4447 353° North 470 541 47,000  Climbing Jacksonville Center
14:17 30.8397 -77.4686 351° North 470 541 47,000  Level Jacksonville Center
14:18 30.9722 -77.4878 353° North 470 541 47,000  Level Jacksonville Center
14:19 31.1044 -77.5067 353° North 470 541 47,000  Level Jacksonville Center
14:20 31.2389 -77.5258 353° North 475 547 47,000  Level Jacksonville Center
14:21 31.3753 -77.5422 354° North 481 554 47,000  Level Jacksonville Center
14:22 31.5100 -77.5711 350° North 486 559 47,000  Level Jacksonville Center
14:23 31.6464 -77.5900 353° North 486 559 47,000  Level Jacksonville Center
14:24 31.7869 -77.6089 353° North 486 559 47,000  Level Jacksonville Center
14:25 31.9214 -77.6281 353° North 486 559 47,000  Level Jacksonville Center
14:26 32.0558 -77.6497 352° North 486 559 47,000  Level Jacksonville Center
14:27 32.1903 -77.6717 352° North 486 559 47,000  Level Jacksonville Center
14:28 32.3225 -77.6886 354° North 486 559 47,000  Level Jacksonville Center
14:29 32.4572 -77.7128 351° North 486 559 47,000  Level Jacksonville Center
14:30 32.5872 -77.7278 354° North 486 559 47,000 -60 Level Jacksonville Center
14:31 32.7214 -77.7472 353° North 486 559 46,900  Descending Jacksonville Center
14:32 32.8539 -77.7667 353° North 486 559 47,000  Climbing Jacksonville Center
14:33 32.9883 -77.7889 352° North 486 559 46,900  Descending Jacksonville Center
14:34 33.1206 -77.8111 352° North 486 559 47,000  Climbing Jacksonville Center
14:35 33.2547 -77.8283 354° North 486 559 46,900  Descending Jacksonville Center
14:36 33.3872 -77.8506 352° North 486 559 47,000  Climbing Jacksonville Center
14:37 33.5236 -77.8725 352° North 486 559 46,900  Descending Jacksonville Center
14:38 33.5803 -77.8825 352° North 499 574 47,000 60 Climbing Washington Center
14:39 33.7136 -77.9011 353° North 499 574 47,000  Level Washington Center
14:40 33.8489 -77.9222 353° North 486 559 47,000  Level Washington Center
14:41 33.9986 -77.9439 353° North 486 559 47,000  Level Washington Center
14:42 34.1339 -77.9578 355° North 486 559 47,000  Level Washington Center
14:43 34.2717 -77.9567 360° North 486 559 47,000  Level Washington Center
14:44 34.4156 -77.9533 North 497 572 47,000  Level Washington Center
14:45 34.5536 -77.9447 North 497 572 47,000  Level Washington Center
14:46 34.6933 -77.9411 North 497 572 47,000  Level Washington Center
14:47 34.8292 -77.9325 North 497 572 47,000  Level Washington Center
14:48 34.9669 -77.9264 North 492 566 47,000  Level Washington Center
14:49 35.1047 -77.9228 North 492 566 47,000  Level Washington Center
14:50 35.2447 -77.9167 North 497 572 47,000  Level Washington Center
14:51 35.3803 -77.9128 North 497 572 47,000  Level Washington Center
14:52 35.5078 -77.9064 North 497 572 47,000  Level Washington Center
14:53 35.6433 -77.9025 North 497 572 47,000  Level Washington Center
14:54 35.7814 -77.8964 North 497 572 47,000  Level Washington Center
14:55 35.9192 -77.8900 North 497 572 47,000  Level Washington Center
14:56 36.0569 -77.8864 North 497 572 47,000  Level Washington Center
14:57 36.1925 -77.8825 North 497 572 47,000  Level Washington Center
14:58 36.3325 -77.8764 North 497 572 47,000  Level Washington Center
14:59 36.4808 -77.8703 North 492 566 47,000  Level Washington Center
15:00 36.6150 -77.8356 12° North 483 556 47,000  Level Washington Center
15:01 36.7372 -77.7717 23° Northeast 497 572 47,000  Level Washington Center
15:02 36.8697 -77.7053 22° Northeast 508 585 47,000  Level Washington Center
15:03 37.0003 -77.6361 23° Northeast 508 585 47,000  Level Washington Center
15:04 37.1308 -77.5692 22° Northeast 508 585 47,000  Level Washington Center
15:05 37.2633 -77.5019 22° Northeast 502 578 47,000  Level Washington Center
15:06 37.4083 -77.4300 22° Northeast 502 578 47,000  Level Washington Center
15:07 37.5408 -77.3597 23° Northeast 502 578 47,000  Level Washington Center
15:08 37.6731 -77.2919 22° Northeast 502 578 47,000  Level Washington Center
15:09 37.8033 -77.2214 23° Northeast 502 578 47,000 -1,320 Level Washington Center
15:10 37.9378 -77.1506 23° Northeast 502 578 44,500 -2,340 Descending Washington Center
15:11 38.0722 -77.0794 23° Northeast 507 583 42,500 -2,100 Descending Washington Center
15:12 38.2022 -77.0133 22° Northeast 507 583 40,400 -2,040 Descending Washington Center
15:13 38.3367 -76.9444 22° Northeast 507 583 38,400 -2,040 Descending Washington Center
15:14 38.4686 -76.8725 23° Northeast 507 583 36,300 -2,220 Descending Washington Center
15:15 38.6092 -76.7978 23° Northeast 518 596 34,100 -2,220 Descending Washington Center
15:16 38.7392 -76.7122 27° Northeast 524 603 32,000 -2,040 Descending Washington Center
15:17 38.8425 -76.5883 43° Northeast 512 589 30,000 -2,040 Descending Washington Center
15:18 38.9436 -76.4697 42° Northeast 501 577 28,000 -2,040 Descending Washington Center
15:19 39.0381 -76.3611 42° Northeast 496 571 26,000 -1,980 Descending Washington Center
15:20 39.1367 -76.2444 43° Northeast 496 571 24,100 -1,020 Descending Washington Center
15:21 39.2372 -76.1328 41° Northeast 485 558 24,000 -480 Descending Washington Center
15:22 39.3397 -76.0264 39° Northeast 472 543 23,200 -1,800 Descending Washington Center
15:23 39.5000 -75.8667 38° Northeast 413 475 19,400 -2,460 Descending Philadelphia TRACON
15:24 39.5667 -75.8167 30° Northeast 399 459 17,700 -2,220 Descending Philadelphia TRACON
15:25 39.6667 -75.7167 38° Northeast 389 448 15,500 -2,040 Descending Philadelphia TRACON
15:26 39.7500 -75.6500 32° Northeast 385 443 13,700 -1,260 Descending Philadelphia TRACON
15:27 39.8333 -75.5667 38° Northeast 364 419 13,000 -360 Descending Philadelphia TRACON
15:28 39.9167 -75.4833 37° Northeast 370 426 13,000  Level Philadelphia TRACON
15:29 40.0000 -75.4167 31° Northeast 375 432 13,000  Level Philadelphia TRACON
15:30 40.1000 -75.3167 37° Northeast 379 436 13,000 -60 Level Philadelphia TRACON
15:31 40.1667 -75.2500 37° Northeast 375 432 12,900 -1,320 Descending Philadelphia TRACON
15:33 40.3167 -75.1167 34° Northeast 288 331 9,200 -1,740 Descending New York TRACON
15:34 40.3833 -75.0333 44° Northeast 293 337 7,600 -1,620 Descending New York TRACON
15:35 40.4333 -74.9500 52° Northeast 289 333 6,000 -1,620 Descending New York TRACON
15:36 40.4833 -74.8833 45° Northeast 271 312 4,400 -1,020 Descending New York TRACON
15:37 40.5333 -74.8167 45° Northeast 276 318 4,000 -240 Descending New York TRACON
15:38 40.5833 -74.7333 52° Northeast 273 314 4,000  Level New York TRACON
15:39 40.6500 -74.6833 30° Northeast 263 303 4,000  Level New York TRACON
15:40 40.7167 -74.6333 30° Northeast 276 318 4,000 -120 Level New York TRACON
15:41 40.7667 -74.6000 27° Northeast 233 268 3,800 -480 Descending New York TRACON
15:42 40.8167 -74.5500 37° Northeast 225 259 3,100 -420 Descending New York TRACON
15:43 40.8667 -74.5167 27° Northeast 222 255 3,000 -60 Descending New York TRACON
15:44 40.9167 -74.4667 37° Northeast 216 249 3,000  Level New York TRACON
15:45 40.9667 -74.4167 37° Northeast 209 241 3,000  Level New York TRACON
15:46 41.0000 -74.3667 49° Northeast 192 221 3,000  Level New York TRACON
15:47 41.0167 -74.3000 72° East 205 236 3,000 -180 Level New York TRACON
15:48 41.0333 -74.2167 75° East 204 235 2,700 -540 Descending New York TRACON
15:49 41.0333 -74.1500 90° East 199 229 2,000 -360 Descending New York TRACON
15:50 41.0333 -74.0833 90° East 194 223 2,000  Level New York TRACON
15:51 41.0167 -74.0167 108° East 189 217 2,000  Level New York TRACON
15:52 40.9833 -73.9667 131° Southeast 200 230 2,000 -240 Level New York TRACON
15:53 40.9333 -73.9833 194° South 175 201 1,500 -540 Descending New York TRACON